Terminal Aerodrome Forecast
Issued by NWS Dodge City, KS

Home | Current Version | Previous Version | Graphics & Text | Print | Product List | Glossary Off
Versions: 1 2 3 4 5 6 7 8 9 10 11 12 13 14 15 16 17 18 19 20 21 22 23 24 25 26 27 28

259
FTUS43 KDDC 151136
TAFDDC
TAF
KDDC 151136Z 1512/1612 02018G28KT P6SM OVC010
     FM151400 02020G28KT P6SM OVC020
     FM151700 01019G27KT P6SM OVC050
     FM152100 36018KT P6SM SCT060
     FM160300 36010KT P6SM FEW250=

USA.gov is the U.S. government's official web portal to all federal, state and local government web resources and services.